sensor_id;sensor_type;location;lat;lon;timestamp;P1;durP1;ratioP1;P2;durP2;ratioP2
52894;SDS011;38759;53.396;6.722;2023-08-12T00:01:39;31.10;;;16.55;;
52894;SDS011;38759;53.396;6.722;2023-08-12T00:04:05;29.75;;;12.82;;
52894;SDS011;38759;53.396;6.722;2023-08-12T00:06:31;29.17;;;14.43;;
52894;SDS011;38759;53.396;6.722;2023-08-12T00:08:57;25.48;;;16.58;;
52894;SDS011;38759;53.396;6.722;2023-08-12T00:11:22;21.65;;;11.43;;
52894;SDS011;38759;53.396;6.722;2023-08-12T00:13:48;18.00;;;10.93;;
52894;SDS011;38759;53.396;6.722;2023-08-12T00:16:14;20.00;;;10.60;;
52894;SDS011;38759;53.396;6.722;2023-08-12T00:18:39;26.70;;;11.30;;
52894;SDS011;38759;53.396;6.722;2023-08-12T00:21:08;18.38;;;9.98;;
52894;SDS011;38759;53.396;6.722;2023-08-12T00:23:37;19.25;;;13.07;;
52894;SDS011;38759;53.396;6.722;2023-08-12T00:26:05;19.00;;;9.95;;
52894;SDS011;38759;53.396;6.722;2023-08-12T00:28:31;17.30;;;10.02;;
52894;SDS011;38759;53.396;6.722;2023-08-12T00:30:58;21.88;;;12.95;;
52894;SDS011;38759;53.396;6.722;2023-08-12T00:33:23;21.17;;;12.30;;
52894;SDS011;38759;53.396;6.722;2023-08-12T00:35:49;19.08;;;9.82;;
52894;SDS011;38759;53.396;6.722;2023-08-12T00:38:15;22.60;;;10.55;;
52894;SDS011;38759;53.396;6.722;2023-08-12T00:40:41;15.52;;;9.40;;
52894;SDS011;38759;53.396;6.722;2023-08-12T00:43:06;16.92;;;8.55;;
52894;SDS011;38759;53.396;6.722;2023-08-12T00:45:34;18.05;;;8.75;;
52894;SDS011;38759;53.396;6.722;2023-08-12T00:48:00;18.00;;;8.60;;
52894;SDS011;38759;53.396;6.722;2023-08-12T00:50:27;14.65;;;8.38;;
52894;SDS011;38759;53.396;6.722;2023-08-12T00:52:53;17.23;;;8.65;;
52894;SDS011;38759;53.396;6.722;2023-08-12T00:55:19;18.98;;;10.18;;
52894;SDS011;38759;53.396;6.722;2023-08-12T00:57:46;18.85;;;9.70;;
52894;SDS011;38759;53.396;6.722;2023-08-12T01:00:12;19.42;;;7.43;;
52894;SDS011;38759;53.396;6.722;2023-08-12T01:02:39;13.10;;;7.00;;
52894;SDS011;38759;53.396;6.722;2023-08-12T01:05:09;12.07;;;7.15;;
52894;SDS011;38759;53.396;6.722;2023-08-12T01:07:35;10.23;;;6.72;;
52894;SDS011;38759;53.396;6.722;2023-08-12T01:10:01;13.35;;;6.75;;
52894;SDS011;38759;53.396;6.722;2023-08-12T01:12:28;14.93;;;6.95;;
52894;SDS011;38759;53.396;6.722;2023-08-12T01:15:01;9.73;;;6.57;;
52894;SDS011;38759;53.396;6.722;2023-08-12T01:17:30;17.67;;;8.43;;
52894;SDS011;38759;53.396;6.722;2023-08-12T01:19:58;17.00;;;9.57;;
52894;SDS011;38759;53.396;6.722;2023-08-12T01:22:25;16.55;;;9.75;;
52894;SDS011;38759;53.396;6.722;2023-08-12T01:24:52;25.83;;;10.05;;
52894;SDS011;38759;53.396;6.722;2023-08-12T01:27:18;20.00;;;9.90;;
52894;SDS011;38759;53.396;6.722;2023-08-12T01:29:45;17.98;;;8.88;;
52894;SDS011;38759;53.396;6.722;2023-08-12T01:32:19;16.52;;;7.38;;
52894;SDS011;38759;53.396;6.722;2023-08-12T01:38:06;14.77;;;8.95;;
52894;SDS011;38759;53.396;6.722;2023-08-12T01:40:33;15.30;;;8.57;;
52894;SDS011;38759;53.396;6.722;2023-08-12T01:43:01;16.25;;;7.80;;
52894;SDS011;38759;53.396;6.722;2023-08-12T01:45:30;17.95;;;8.93;;
52894;SDS011;38759;53.396;6.722;2023-08-12T01:47:57;16.25;;;8.93;;
52894;SDS011;38759;53.396;6.722;2023-08-12T01:50:23;17.42;;;8.75;;
52894;SDS011;38759;53.396;6.722;2023-08-12T01:52:49;14.55;;;7.75;;
52894;SDS011;38759;53.396;6.722;2023-08-12T01:55:14;13.82;;;8.23;;
52894;SDS011;38759;53.396;6.722;2023-08-12T01:57:40;17.38;;;8.02;;
52894;SDS011;38759;53.396;6.722;2023-08-12T02:00:06;14.50;;;8.32;;
52894;SDS011;38759;53.396;6.722;2023-08-12T02:02:32;14.57;;;7.75;;
52894;SDS011;38759;53.396;6.722;2023-08-12T02:04:57;16.10;;;7.13;;
52894;SDS011;38759;53.396;6.722;2023-08-12T02:07:23;11.15;;;6.15;;
52894;SDS011;38759;53.396;6.722;2023-08-12T02:09:49;11.27;;;6.22;;
52894;SDS011;38759;53.396;6.722;2023-08-12T02:12:14;10.65;;;5.47;;
52894;SDS011;38759;53.396;6.722;2023-08-12T02:14:40;11.70;;;5.25;;
52894;SDS011;38759;53.396;6.722;2023-08-12T02:17:05;10.95;;;6.95;;
52894;SDS011;38759;53.396;6.722;2023-08-12T02:19:32;13.02;;;7.18;;
52894;SDS011;38759;53.396;6.722;2023-08-12T02:21:58;14.98;;;6.60;;
52894;SDS011;38759;53.396;6.722;2023-08-12T02:24:24;14.05;;;6.50;;
52894;SDS011;38759;53.396;6.722;2023-08-12T02:26:50;11.68;;;5.97;;
52894;SDS011;38759;53.396;6.722;2023-08-12T02:29:16;10.43;;;5.95;;
52894;SDS011;38759;53.396;6.722;2023-08-12T02:31:41;9.13;;;4.40;;
52894;SDS011;38759;53.396;6.722;2023-08-12T02:34:07;11.35;;;5.13;;
52894;SDS011;38759;53.396;6.722;2023-08-12T02:36:33;10.15;;;4.35;;
52894;SDS011;38759;53.396;6.722;2023-08-12T02:38:58;11.10;;;4.68;;
52894;SDS011;38759;53.396;6.722;2023-08-12T02:41:24;11.98;;;4.70;;
52894;SDS011;38759;53.396;6.722;2023-08-12T02:43:50;11.13;;;6.10;;
52894;SDS011;38759;53.396;6.722;2023-08-12T02:46:15;10.85;;;5.60;;
52894;SDS011;38759;53.396;6.722;2023-08-12T02:48:42;12.25;;;6.40;;
52894;SDS011;38759;53.396;6.722;2023-08-12T02:51:08;13.88;;;6.88;;
52894;SDS011;38759;53.396;6.722;2023-08-12T02:53:35;11.57;;;6.03;;
52894;SDS011;38759;53.396;6.722;2023-08-12T02:56:00;12.85;;;5.90;;
52894;SDS011;38759;53.396;6.722;2023-08-12T02:58:26;10.68;;;6.78;;
52894;SDS011;38759;53.396;6.722;2023-08-12T03:00:51;14.82;;;7.18;;
52894;SDS011;38759;53.396;6.722;2023-08-12T03:03:20;9.00;;;5.15;;
52894;SDS011;38759;53.396;6.722;2023-08-12T03:05:47;11.52;;;5.03;;
52894;SDS011;38759;53.396;6.722;2023-08-12T03:08:13;7.03;;;4.30;;
52894;SDS011;38759;53.396;6.722;2023-08-12T03:10:39;7.68;;;4.45;;
52894;SDS011;38759;53.396;6.722;2023-08-12T03:13:04;10.93;;;5.43;;
52894;SDS011;38759;53.396;6.722;2023-08-12T03:15:30;8.05;;;4.55;;
52894;SDS011;38759;53.396;6.722;2023-08-12T03:17:56;12.50;;;6.20;;
52894;SDS011;38759;53.396;6.722;2023-08-12T03:20:22;12.88;;;5.82;;
52894;SDS011;38759;53.396;6.722;2023-08-12T03:22:48;10.63;;;4.65;;
52894;SDS011;38759;53.396;6.722;2023-08-12T03:25:13;8.55;;;4.50;;
52894;SDS011;38759;53.396;6.722;2023-08-12T03:27:40;10.05;;;4.63;;
52894;SDS011;38759;53.396;6.722;2023-08-12T03:30:07;9.73;;;5.18;;
52894;SDS011;38759;53.396;6.722;2023-08-12T03:32:33;10.30;;;4.38;;
52894;SDS011;38759;53.396;6.722;2023-08-12T03:34:59;7.10;;;4.18;;
52894;SDS011;38759;53.396;6.722;2023-08-12T03:37:25;11.13;;;5.25;;
52894;SDS011;38759;53.396;6.722;2023-08-12T03:39:51;8.25;;;4.60;;
52894;SDS011;38759;53.396;6.722;2023-08-12T03:42:17;7.85;;;4.68;;
52894;SDS011;38759;53.396;6.722;2023-08-12T03:44:43;7.38;;;4.90;;
52894;SDS011;38759;53.396;6.722;2023-08-12T03:47:09;9.38;;;4.15;;
52894;SDS011;38759;53.396;6.722;2023-08-12T03:49:35;8.27;;;5.22;;
52894;SDS011;38759;53.396;6.722;2023-08-12T03:52:01;9.02;;;4.65;;
52894;SDS011;38759;53.396;6.722;2023-08-12T03:54:27;11.88;;;6.22;;
52894;SDS011;38759;53.396;6.722;2023-08-12T03:56:52;10.50;;;4.43;;
52894;SDS011;38759;53.396;6.722;2023-08-12T03:59:18;9.30;;;4.85;;
52894;SDS011;38759;53.396;6.722;2023-08-12T04:01:44;8.93;;;4.72;;
52894;SDS011;38759;53.396;6.722;2023-08-12T04:04:10;9.75;;;5.32;;
52894;SDS011;38759;53.396;6.722;2023-08-12T04:06:35;13.50;;;6.05;;
52894;SDS011;38759;53.396;6.722;2023-08-12T04:09:02;11.75;;;6.80;;
52894;SDS011;38759;53.396;6.722;2023-08-12T04:11:28;14.73;;;7.55;;
52894;SDS011;38759;53.396;6.722;2023-08-12T04:13:53;7.95;;;4.57;;
52894;SDS011;38759;53.396;6.722;2023-08-12T04:16:19;14.93;;;6.72;;
52894;SDS011;38759;53.396;6.722;2023-08-12T04:18:45;16.80;;;7.47;;
52894;SDS011;38759;53.396;6.722;2023-08-12T04:21:10;13.15;;;7.57;;
52894;SDS011;38759;53.396;6.722;2023-08-12T04:23:36;16.30;;;8.27;;
52894;SDS011;38759;53.396;6.722;2023-08-12T04:26:02;17.02;;;8.30;;
52894;SDS011;38759;53.396;6.722;2023-08-12T04:28:27;12.88;;;7.72;;
52894;SDS011;38759;53.396;6.722;2023-08-12T04:30:53;14.25;;;7.20;;
52894;SDS011;38759;53.396;6.722;2023-08-12T04:33:18;12.43;;;5.97;;
52894;SDS011;38759;53.396;6.722;2023-08-12T04:35:47;11.52;;;6.30;;
52894;SDS011;38759;53.396;6.722;2023-08-12T04:38:13;12.75;;;8.05;;
52894;SDS011;38759;53.396;6.722;2023-08-12T04:40:38;11.20;;;7.13;;
52894;SDS011;38759;53.396;6.722;2023-08-12T04:43:05;14.75;;;7.90;;
52894;SDS011;38759;53.396;6.722;2023-08-12T04:45:31;9.75;;;5.72;;
52894;SDS011;38759;53.396;6.722;2023-08-12T04:47:57;9.80;;;5.82;;
52894;SDS011;38759;53.396;6.722;2023-08-12T04:50:23;7.30;;;5.00;;
52894;SDS011;38759;53.396;6.722;2023-08-12T04:52:48;13.27;;;5.20;;
52894;SDS011;38759;53.396;6.722;2023-08-12T04:55:14;10.10;;;5.40;;
52894;SDS011;38759;53.396;6.722;2023-08-12T04:57:40;9.90;;;5.82;;
52894;SDS011;38759;53.396;6.722;2023-08-12T05:00:06;15.02;;;5.90;;
52894;SDS011;38759;53.396;6.722;2023-08-12T05:02:35;9.82;;;6.35;;
52894;SDS011;38759;53.396;6.722;2023-08-12T05:05:00;11.75;;;6.32;;
52894;SDS011;38759;53.396;6.722;2023-08-12T05:07:26;12.13;;;8.27;;
52894;SDS011;38759;53.396;6.722;2023-08-12T05:09:52;10.93;;;7.72;;
52894;SDS011;38759;53.396;6.722;2023-08-12T05:12:18;11.02;;;6.18;;
52894;SDS011;38759;53.396;6.722;2023-08-12T05:14:44;9.60;;;5.15;;
52894;SDS011;38759;53.396;6.722;2023-08-12T05:17:10;10.57;;;5.47;;
52894;SDS011;38759;53.396;6.722;2023-08-12T05:19:35;10.95;;;6.53;;
52894;SDS011;38759;53.396;6.722;2023-08-12T05:22:01;13.25;;;8.13;;
52894;SDS011;38759;53.396;6.722;2023-08-12T05:24:27;13.35;;;9.02;;
52894;SDS011;38759;53.396;6.722;2023-08-12T05:26:52;17.58;;;9.35;;
52894;SDS011;38759;53.396;6.722;2023-08-12T05:29:18;12.93;;;8.45;;
52894;SDS011;38759;53.396;6.722;2023-08-12T05:31:44;14.90;;;8.32;;
52894;SDS011;38759;53.396;6.722;2023-08-12T05:34:09;9.27;;;5.82;;
52894;SDS011;38759;53.396;6.722;2023-08-12T05:36:35;12.73;;;5.97;;
52894;SDS011;38759;53.396;6.722;2023-08-12T05:39:01;14.20;;;6.15;;
52894;SDS011;38759;53.396;6.722;2023-08-12T05:41:28;12.35;;;6.65;;
52894;SDS011;38759;53.396;6.722;2023-08-12T05:43:53;17.35;;;7.70;;
52894;SDS011;38759;53.396;6.722;2023-08-12T05:46:19;13.02;;;6.78;;
52894;SDS011;38759;53.396;6.722;2023-08-12T05:48:45;18.00;;;9.52;;
52894;SDS011;38759;53.396;6.722;2023-08-12T05:51:11;11.13;;;6.93;;
52894;SDS011;38759;53.396;6.722;2023-08-12T05:53:36;14.02;;;7.43;;
52894;SDS011;38759;53.396;6.722;2023-08-12T05:56:02;14.77;;;7.78;;
52894;SDS011;38759;53.396;6.722;2023-08-12T05:58:28;13.90;;;8.00;;
52894;SDS011;38759;53.396;6.722;2023-08-12T06:00:54;16.40;;;8.15;;
52894;SDS011;38759;53.396;6.722;2023-08-12T06:03:19;26.38;;;11.90;;
52894;SDS011;38759;53.396;6.722;2023-08-12T06:05:45;15.30;;;7.63;;
52894;SDS011;38759;53.396;6.722;2023-08-12T06:08:12;13.63;;;7.80;;
52894;SDS011;38759;53.396;6.722;2023-08-12T06:10:38;14.77;;;6.72;;
52894;SDS011;38759;53.396;6.722;2023-08-12T06:13:04;18.70;;;9.75;;
52894;SDS011;38759;53.396;6.722;2023-08-12T06:15:31;20.45;;;9.55;;
52894;SDS011;38759;53.396;6.722;2023-08-12T06:17:57;15.95;;;10.25;;
52894;SDS011;38759;53.396;6.722;2023-08-12T06:20:23;14.75;;;9.20;;
52894;SDS011;38759;53.396;6.722;2023-08-12T06:22:49;19.45;;;10.07;;
52894;SDS011;38759;53.396;6.722;2023-08-12T06:25:16;19.27;;;10.27;;
52894;SDS011;38759;53.396;6.722;2023-08-12T06:27:42;15.68;;;8.90;;
52894;SDS011;38759;53.396;6.722;2023-08-12T06:30:08;13.32;;;6.95;;
52894;SDS011;38759;53.396;6.722;2023-08-12T06:32:35;13.23;;;8.18;;
52894;SDS011;38759;53.396;6.722;2023-08-12T06:35:01;17.02;;;7.00;;
52894;SDS011;38759;53.396;6.722;2023-08-12T06:37:26;15.68;;;8.18;;
52894;SDS011;38759;53.396;6.722;2023-08-12T06:39:52;14.02;;;7.18;;
52894;SDS011;38759;53.396;6.722;2023-08-12T06:42:18;15.38;;;8.18;;
52894;SDS011;38759;53.396;6.722;2023-08-12T06:44:44;12.48;;;7.03;;
52894;SDS011;38759;53.396;6.722;2023-08-12T06:47:10;18.13;;;8.32;;
52894;SDS011;38759;53.396;6.722;2023-08-12T06:49:36;16.70;;;7.30;;
52894;SDS011;38759;53.396;6.722;2023-08-12T06:52:02;13.65;;;8.93;;
52894;SDS011;38759;53.396;6.722;2023-08-12T06:54:27;19.45;;;9.48;;
52894;SDS011;38759;53.396;6.722;2023-08-12T06:56:53;15.57;;;7.68;;
52894;SDS011;38759;53.396;6.722;2023-08-12T06:59:19;16.52;;;10.75;;
52894;SDS011;38759;53.396;6.722;2023-08-12T07:01:44;15.90;;;9.98;;
52894;SDS011;38759;53.396;6.722;2023-08-12T07:04:10;13.73;;;7.80;;
52894;SDS011;38759;53.396;6.722;2023-08-12T07:06:36;18.92;;;7.18;;
52894;SDS011;38759;53.396;6.722;2023-08-12T07:09:01;15.23;;;8.50;;
52894;SDS011;38759;53.396;6.722;2023-08-12T07:11:28;15.07;;;7.30;;
52894;SDS011;38759;53.396;6.722;2023-08-12T07:13:54;18.13;;;9.50;;
52894;SDS011;38759;53.396;6.722;2023-08-12T07:16:19;17.23;;;10.25;;
52894;SDS011;38759;53.396;6.722;2023-08-12T07:18:45;19.02;;;10.43;;
52894;SDS011;38759;53.396;6.722;2023-08-12T07:21:13;20.30;;;10.18;;
52894;SDS011;38759;53.396;6.722;2023-08-12T07:23:39;19.08;;;10.23;;
52894;SDS011;38759;53.396;6.722;2023-08-12T07:26:05;19.48;;;10.20;;
52894;SDS011;38759;53.396;6.722;2023-08-12T07:28:30;15.40;;;9.25;;
52894;SDS011;38759;53.396;6.722;2023-08-12T07:30:56;17.63;;;9.55;;
52894;SDS011;38759;53.396;6.722;2023-08-12T07:33:22;20.15;;;10.70;;
52894;SDS011;38759;53.396;6.722;2023-08-12T07:35:47;14.60;;;9.55;;
52894;SDS011;38759;53.396;6.722;2023-08-12T07:38:13;19.38;;;9.82;;
52894;SDS011;38759;53.396;6.722;2023-08-12T07:40:39;16.38;;;10.13;;
52894;SDS011;38759;53.396;6.722;2023-08-12T07:43:05;17.17;;;10.35;;
52894;SDS011;38759;53.396;6.722;2023-08-12T07:45:31;16.58;;;7.65;;
52894;SDS011;38759;53.396;6.722;2023-08-12T07:47:57;15.43;;;7.35;;
52894;SDS011;38759;53.396;6.722;2023-08-12T07:50:22;16.70;;;8.98;;
52894;SDS011;38759;53.396;6.722;2023-08-12T07:52:48;15.95;;;8.02;;
52894;SDS011;38759;53.396;6.722;2023-08-12T07:55:13;20.98;;;8.57;;
52894;SDS011;38759;53.396;6.722;2023-08-12T07:57:39;17.48;;;7.90;;
52894;SDS011;38759;53.396;6.722;2023-08-12T08:00:05;17.20;;;9.30;;
52894;SDS011;38759;53.396;6.722;2023-08-12T08:02:33;20.17;;;10.68;;
52894;SDS011;38759;53.396;6.722;2023-08-12T08:04:58;18.75;;;10.25;;
52894;SDS011;38759;53.396;6.722;2023-08-12T08:07:24;18.40;;;9.82;;
52894;SDS011;38759;53.396;6.722;2023-08-12T08:09:50;18.63;;;8.70;;
52894;SDS011;38759;53.396;6.722;2023-08-12T08:12:16;17.50;;;9.13;;
52894;SDS011;38759;53.396;6.722;2023-08-12T08:14:42;18.58;;;10.90;;
52894;SDS011;38759;53.396;6.722;2023-08-12T08:17:08;17.30;;;8.98;;
52894;SDS011;38759;53.396;6.722;2023-08-12T08:19:33;17.02;;;11.20;;
52894;SDS011;38759;53.396;6.722;2023-08-12T08:21:59;20.23;;;8.90;;
52894;SDS011;38759;53.396;6.722;2023-08-12T08:24:26;17.02;;;10.20;;
52894;SDS011;38759;53.396;6.722;2023-08-12T08:26:52;19.65;;;10.95;;
52894;SDS011;38759;53.396;6.722;2023-08-12T08:29:17;19.65;;;11.30;;
52894;SDS011;38759;53.396;6.722;2023-08-12T08:31:43;19.67;;;11.20;;
52894;SDS011;38759;53.396;6.722;2023-08-12T08:34:09;20.60;;;9.30;;
52894;SDS011;38759;53.396;6.722;2023-08-12T08:36:35;19.13;;;9.02;;
52894;SDS011;38759;53.396;6.722;2023-08-12T08:39:01;16.63;;;9.32;;
52894;SDS011;38759;53.396;6.722;2023-08-12T08:41:28;22.50;;;11.38;;
52894;SDS011;38759;53.396;6.722;2023-08-12T08:43:56;21.58;;;10.57;;
52894;SDS011;38759;53.396;6.722;2023-08-12T08:46:29;21.65;;;13.38;;
52894;SDS011;38759;53.396;6.722;2023-08-12T08:48:55;25.58;;;14.50;;
52894;SDS011;38759;53.396;6.722;2023-08-12T08:51:24;22.45;;;13.30;;
52894;SDS011;38759;53.396;6.722;2023-08-12T08:53:50;18.10;;;10.07;;
52894;SDS011;38759;53.396;6.722;2023-08-12T08:56:19;27.77;;;13.18;;
52894;SDS011;38759;53.396;6.722;2023-08-12T08:58:46;21.88;;;14.20;;
52894;SDS011;38759;53.396;6.722;2023-08-12T09:01:12;21.85;;;13.02;;
52894;SDS011;38759;53.396;6.722;2023-08-12T09:03:39;24.70;;;13.55;;
52894;SDS011;38759;53.396;6.722;2023-08-12T09:06:06;22.00;;;13.70;;
52894;SDS011;38759;53.396;6.722;2023-08-12T09:08:32;22.70;;;12.82;;
52894;SDS011;38759;53.396;6.722;2023-08-12T09:10:59;23.73;;;14.60;;
52894;SDS011;38759;53.396;6.722;2023-08-12T09:13:25;20.38;;;14.02;;
52894;SDS011;38759;53.396;6.722;2023-08-12T09:15:51;28.83;;;16.30;;
52894;SDS011;38759;53.396;6.722;2023-08-12T09:18:16;25.73;;;15.48;;
52894;SDS011;38759;53.396;6.722;2023-08-12T09:20:42;23.83;;;12.95;;
52894;SDS011;38759;53.396;6.722;2023-08-12T09:23:09;23.42;;;11.88;;
52894;SDS011;38759;53.396;6.722;2023-08-12T09:25:41;25.75;;;12.43;;
52894;SDS011;38759;53.396;6.722;2023-08-12T09:28:10;22.40;;;12.00;;
52894;SDS011;38759;53.396;6.722;2023-08-12T09:30:37;24.50;;;12.43;;
52894;SDS011;38759;53.396;6.722;2023-08-12T09:33:04;26.80;;;16.73;;
52894;SDS011;38759;53.396;6.722;2023-08-12T09:35:40;30.35;;;17.00;;
52894;SDS011;38759;53.396;6.722;2023-08-12T09:38:10;28.40;;;17.67;;
52894;SDS011;38759;53.396;6.722;2023-08-12T09:40:36;31.00;;;17.80;;
52894;SDS011;38759;53.396;6.722;2023-08-12T09:43:03;24.35;;;15.48;;
52894;SDS011;38759;53.396;6.722;2023-08-12T09:45:30;33.50;;;17.35;;
52894;SDS011;38759;53.396;6.722;2023-08-12T09:47:56;34.38;;;14.77;;
52894;SDS011;38759;53.396;6.722;2023-08-12T09:50:23;26.38;;;17.05;;
52894;SDS011;38759;53.396;6.722;2023-08-12T09:52:50;23.33;;;12.85;;
52894;SDS011;38759;53.396;6.722;2023-08-12T09:55:17;29.70;;;18.20;;
52894;SDS011;38759;53.396;6.722;2023-08-12T09:57:43;34.30;;;19.42;;
52894;SDS011;38759;53.396;6.722;2023-08-12T10:00:12;31.17;;;17.90;;
52894;SDS011;38759;53.396;6.722;2023-08-12T10:02:42;23.00;;;12.10;;
52894;SDS011;38759;53.396;6.722;2023-08-12T10:05:14;29.25;;;18.05;;
52894;SDS011;38759;53.396;6.722;2023-08-12T10:07:43;30.55;;;19.10;;
52894;SDS011;38759;53.396;6.722;2023-08-12T10:10:11;32.30;;;17.35;;
52894;SDS011;38759;53.396;6.722;2023-08-12T10:12:38;28.55;;;15.75;;
52894;SDS011;38759;53.396;6.722;2023-08-12T10:15:05;26.23;;;14.30;;
52894;SDS011;38759;53.396;6.722;2023-08-12T10:17:32;33.42;;;19.02;;
52894;SDS011;38759;53.396;6.722;2023-08-12T10:20:00;23.05;;;14.77;;
52894;SDS011;38759;53.396;6.722;2023-08-12T10:22:29;27.20;;;13.70;;
52894;SDS011;38759;53.396;6.722;2023-08-12T10:24:59;23.60;;;13.40;;
52894;SDS011;38759;53.396;6.722;2023-08-12T10:27:27;28.10;;;15.25;;
52894;SDS011;38759;53.396;6.722;2023-08-12T10:29:55;31.30;;;20.27;;
52894;SDS011;38759;53.396;6.722;2023-08-12T10:32:22;32.95;;;20.52;;
52894;SDS011;38759;53.396;6.722;2023-08-12T10:34:55;36.42;;;19.48;;
52894;SDS011;38759;53.396;6.722;2023-08-12T10:37:23;28.00;;;15.10;;
52894;SDS011;38759;53.396;6.722;2023-08-12T10:39:50;22.85;;;13.88;;
52894;SDS011;38759;53.396;6.722;2023-08-12T10:45:16;27.30;;;14.63;;
52894;SDS011;38759;53.396;6.722;2023-08-12T10:47:43;26.88;;;14.55;;
52894;SDS011;38759;53.396;6.722;2023-08-12T10:50:16;36.90;;;19.30;;
52894;SDS011;38759;53.396;6.722;2023-08-12T10:52:46;25.45;;;17.70;;
52894;SDS011;38759;53.396;6.722;2023-08-12T10:55:22;29.13;;;17.05;;
52894;SDS011;38759;53.396;6.722;2023-08-12T10:57:50;29.77;;;19.05;;
52894;SDS011;38759;53.396;6.722;2023-08-12T11:00:20;29.23;;;20.20;;
52894;SDS011;38759;53.396;6.722;2023-08-12T11:02:50;31.95;;;21.95;;
52894;SDS011;38759;53.396;6.722;2023-08-12T11:05:17;31.90;;;20.20;;
52894;SDS011;38759;53.396;6.722;2023-08-12T11:07:48;34.00;;;21.17;;
52894;SDS011;38759;53.396;6.722;2023-08-12T11:10:21;27.25;;;19.42;;
52894;SDS011;38759;53.396;6.722;2023-08-12T11:18:01;20.20;;;11.85;;
52894;SDS011;38759;53.396;6.722;2023-08-12T11:20:30;12.77;;;9.73;;
52894;SDS011;38759;53.396;6.722;2023-08-12T11:22:55;13.45;;;9.45;;
52894;SDS011;38759;53.396;6.722;2023-08-12T11:25:23;12.93;;;10.02;;
52894;SDS011;38759;53.396;6.722;2023-08-12T11:27:49;15.25;;;10.23;;
52894;SDS011;38759;53.396;6.722;2023-08-12T11:30:16;15.45;;;9.85;;
52894;SDS011;38759;53.396;6.722;2023-08-12T11:32:47;13.35;;;7.75;;
52894;SDS011;38759;53.396;6.722;2023-08-12T11:35:15;7.50;;;5.10;;
52894;SDS011;38759;53.396;6.722;2023-08-12T11:37:43;8.00;;;5.00;;
52894;SDS011;38759;53.396;6.722;2023-08-12T11:40:10;6.22;;;3.95;;
52894;SDS011;38759;53.396;6.722;2023-08-12T11:42:40;7.65;;;4.22;;
52894;SDS011;38759;53.396;6.722;2023-08-12T11:45:07;5.07;;;3.30;;
52894;SDS011;38759;53.396;6.722;2023-08-12T11:47:33;9.35;;;4.85;;
52894;SDS011;38759;53.396;6.722;2023-08-12T11:50:03;3.65;;;2.63;;
52894;SDS011;38759;53.396;6.722;2023-08-12T11:52:30;2.65;;;2.38;;
52894;SDS011;38759;53.396;6.722;2023-08-12T11:54:56;4.45;;;2.50;;
52894;SDS011;38759;53.396;6.722;2023-08-12T11:57:23;2.88;;;2.20;;
52894;SDS011;38759;53.396;6.722;2023-08-12T11:59:52;5.10;;;2.42;;
52894;SDS011;38759;53.396;6.722;2023-08-12T12:02:23;2.78;;;2.00;;
52894;SDS011;38759;53.396;6.722;2023-08-12T12:04:51;2.17;;;1.90;;
52894;SDS011;38759;53.396;6.722;2023-08-12T12:07:21;4.07;;;2.03;;
52894;SDS011;38759;53.396;6.722;2023-08-12T12:09:54;4.10;;;1.90;;
52894;SDS011;38759;53.396;6.722;2023-08-12T12:12:23;3.70;;;2.13;;
52894;SDS011;38759;53.396;6.722;2023-08-12T12:14:52;2.72;;;1.92;;
52894;SDS011;38759;53.396;6.722;2023-08-12T12:17:20;6.10;;;2.53;;
52894;SDS011;38759;53.396;6.722;2023-08-12T12:19:51;3.80;;;2.20;;
52894;SDS011;38759;53.396;6.722;2023-08-12T12:22:18;4.88;;;2.03;;
52894;SDS011;38759;53.396;6.722;2023-08-12T12:24:47;7.65;;;2.72;;
52894;SDS011;38759;53.396;6.722;2023-08-12T12:27:13;9.00;;;2.80;;
52894;SDS011;38759;53.396;6.722;2023-08-12T12:29:39;12.68;;;3.30;;
52894;SDS011;38759;53.396;6.722;2023-08-12T12:32:04;9.65;;;2.30;;
52894;SDS011;38759;53.396;6.722;2023-08-12T12:34:30;6.47;;;2.55;;
52894;SDS011;38759;53.396;6.722;2023-08-12T12:36:56;9.00;;;3.13;;
52894;SDS011;38759;53.396;6.722;2023-08-12T12:39:21;9.95;;;3.40;;
52894;SDS011;38759;53.396;6.722;2023-08-12T12:41:50;9.65;;;3.25;;
52894;SDS011;38759;53.396;6.722;2023-08-12T12:44:15;9.63;;;2.97;;
52894;SDS011;38759;53.396;6.722;2023-08-12T12:46:41;7.07;;;2.25;;
52894;SDS011;38759;53.396;6.722;2023-08-12T12:49:07;6.35;;;2.33;;
52894;SDS011;38759;53.396;6.722;2023-08-12T12:51:32;6.93;;;2.58;;
52894;SDS011;38759;53.396;6.722;2023-08-12T12:53:58;13.68;;;4.00;;
52894;SDS011;38759;53.396;6.722;2023-08-12T12:56:24;11.68;;;3.85;;
52894;SDS011;38759;53.396;6.722;2023-08-12T12:58:49;11.05;;;3.60;;
52894;SDS011;38759;53.396;6.722;2023-08-12T13:01:15;7.15;;;2.28;;
52894;SDS011;38759;53.396;6.722;2023-08-12T13:03:41;9.77;;;3.30;;
52894;SDS011;38759;53.396;6.722;2023-08-12T13:06:06;9.38;;;3.72;;
52894;SDS011;38759;53.396;6.722;2023-08-12T13:08:32;7.78;;;3.17;;
52894;SDS011;38759;53.396;6.722;2023-08-12T13:10:58;9.70;;;3.30;;
52894;SDS011;38759;53.396;6.722;2023-08-12T13:13:24;11.52;;;3.63;;
52894;SDS011;38759;53.396;6.722;2023-08-12T13:15:50;10.88;;;3.47;;
52894;SDS011;38759;53.396;6.722;2023-08-12T13:18:16;8.90;;;3.05;;
52894;SDS011;38759;53.396;6.722;2023-08-12T13:20:41;4.38;;;1.83;;
52894;SDS011;38759;53.396;6.722;2023-08-12T13:23:07;6.75;;;2.05;;
52894;SDS011;38759;53.396;6.722;2023-08-12T13:25:33;6.70;;;1.90;;
52894;SDS011;38759;53.396;6.722;2023-08-12T13:27:59;6.55;;;1.58;;
52894;SDS011;38759;53.396;6.722;2023-08-12T13:30:26;4.32;;;1.60;;
52894;SDS011;38759;53.396;6.722;2023-08-12T13:32:52;10.65;;;2.05;;
52894;SDS011;38759;53.396;6.722;2023-08-12T13:35:18;7.78;;;1.50;;
52894;SDS011;38759;53.396;6.722;2023-08-12T13:37:44;10.65;;;2.17;;
52894;SDS011;38759;53.396;6.722;2023-08-12T13:40:10;9.73;;;1.67;;
52894;SDS011;38759;53.396;6.722;2023-08-12T13:42:37;7.28;;;2.03;;
52894;SDS011;38759;53.396;6.722;2023-08-12T13:45:03;8.48;;;2.20;;
52894;SDS011;38759;53.396;6.722;2023-08-12T13:47:29;8.10;;;2.28;;
52894;SDS011;38759;53.396;6.722;2023-08-12T13:49:55;14.77;;;2.80;;
52894;SDS011;38759;53.396;6.722;2023-08-12T13:52:21;8.68;;;2.67;;
52894;SDS011;38759;53.396;6.722;2023-08-12T13:54:47;12.35;;;2.67;;
52894;SDS011;38759;53.396;6.722;2023-08-12T13:57:13;9.23;;;2.72;;
52894;SDS011;38759;53.396;6.722;2023-08-12T13:59:39;13.20;;;3.75;;
52894;SDS011;38759;53.396;6.722;2023-08-12T14:02:08;14.75;;;4.53;;
52894;SDS011;38759;53.396;6.722;2023-08-12T14:04:35;13.60;;;4.47;;
52894;SDS011;38759;53.396;6.722;2023-08-12T14:07:00;14.10;;;4.40;;
52894;SDS011;38759;53.396;6.722;2023-08-12T14:09:26;16.02;;;4.22;;
52894;SDS011;38759;53.396;6.722;2023-08-12T14:11:52;10.98;;;4.30;;
52894;SDS011;38759;53.396;6.722;2023-08-12T14:14:17;11.65;;;4.10;;
52894;SDS011;38759;53.396;6.722;2023-08-12T14:16:43;11.23;;;4.47;;
52894;SDS011;38759;53.396;6.722;2023-08-12T14:19:09;10.65;;;3.38;;
52894;SDS011;38759;53.396;6.722;2023-08-12T14:21:34;10.65;;;4.05;;
52894;SDS011;38759;53.396;6.722;2023-08-12T14:24:00;11.70;;;3.60;;
52894;SDS011;38759;53.396;6.722;2023-08-12T14:26:26;14.80;;;3.38;;
52894;SDS011;38759;53.396;6.722;2023-08-12T14:28:51;9.88;;;2.80;;
52894;SDS011;38759;53.396;6.722;2023-08-12T14:31:17;12.43;;;3.28;;
52894;SDS011;38759;53.396;6.722;2023-08-12T14:33:43;10.55;;;2.45;;
52894;SDS011;38759;53.396;6.722;2023-08-12T14:36:08;12.50;;;3.08;;
52894;SDS011;38759;53.396;6.722;2023-08-12T14:38:34;9.50;;;2.35;;
52894;SDS011;38759;53.396;6.722;2023-08-12T14:41:00;13.48;;;3.78;;